Time,TemperatureF,DewpointF,PressureIn,WindDirection,WindDirectionDegrees,WindSpeedMPH,WindSpeedGustMPH,Humidity,HourlyPrecipIn,Conditions,Clouds,dailyrainin,SoftwareType,DateUTC
2013-03-01 00:02:00,35.4,26.2,29.91,NNW,337,0.0,-999.0,69,0.00,Sunny,,0.00,Open2300\PHP-WU,2013-03-01 05:02:00,
2013-03-01 00:04:00,35.4,26.2,29.91,NNW,337,0.0,-999.0,69,0.00,Sunny,,0.00,Open2300\PHP-WU,2013-03-01 05:04:00,
2013-03-01 00:06:00,35.4,25.9,29.91,NNW,337,0.0,-999.0,68,0.00,Sunny,,0.00,Open2300\PHP-WU,2013-03-01 05:06:00,
2013-03-01 00:12:00,35.2,25.7,29.91,NNW,337,0.0,-999.0,68,0.00,Sunny,,0.00,Open2300\PHP-WU,2013-03-01 05:12:00,
2013-03-01 00:18:00,35.4,25.9,29.91,NNW,337,0.0,-999.0,68,0.00,Sunny,,0.00,Open2300\PHP-WU,2013-03-01 05:18:00,
2013-03-01 00:24:00,35.4,25.5,29.91,NW,315,0.0,-999.0,67,0.00,Sunny,,0.00,Open2300\PHP-WU,2013-03-01 05:24:00,
2013-03-01 00:30:00,35.4,25.5,29.91,East,90,0.0,-999.0,67,0.00,Sunny,,0.00,Open2300\PHP-WU,2013-03-01 05:30:00,
2013-03-01 00:36:00,35.2,25.3,29.91,East,90,0.0,-999.0,67,0.00,Sunny,,0.00,Open2300\PHP-WU,2013-03-01 05:36:00,
2013-03-01 00:42:00,34.9,25.0,29.91,East,90,0.0,-999.0,67,0.00,Sunny,,0.00,Open2300\PHP-WU,2013-03-01 05:42:00,
2013-03-01 00:48:00,34.7,24.8,29.91,North,0,0.0,-999.0,67,0.00,Sunny,,0.00,Open2300\PHP-WU,2013-03-01 05:48:00,
2013-03-01 00:54:00,34.9,25.0,29.91,North,0,0.0,-999.0,67,0.00,Sunny,,0.00,Open2300\PHP-WU,2013-03-01 05:54:00,
2013-03-01 01:02:00,34.9,25.0,29.92,North,0,0.0,-999.0,67,0.00,Sunny,,0.00,Open2300\PHP-WU,2013-03-01 06:02:00,
2013-03-01 01:08:00,34.3,24.8,29.92,North,0,0.0,-999.0,68,0.00,Sunny,,0.00,Open2300\PHP-WU,2013-03-01 06:08:00,
2013-03-01 01:14:00,33.4,24.3,29.92,North,0,0.0,-999.0,69,0.00,Sunny,,0.00,Open2300\PHP-WU,2013-03-01 06:14:00,
2013-03-01 01:20:00,32.5,23.8,29.92,North,0,0.0,-999.0,70,0.00,Sunny,,0.00,Open2300\PHP-WU,2013-03-01 06:20:00,
2013-03-01 01:26:00,32.2,23.5,29.92,North,0,0.0,-999.0,70,0.00,Sunny,,0.00,Open2300\PHP-WU,2013-03-01 06:26:00,
2013-03-01 01:32:00,32.2,23.8,29.92,North,0,0.0,-999.0,71,0.00,Sunny,,0.00,Open2300\PHP-WU,2013-03-01 06:32:00,
2013-03-01 01:38:00,31.6,23.6,29.92,North,0,0.0,-999.0,72,0.00,Sunny,,0.00,Open2300\PHP-WU,2013-03-01 06:38:00,
2013-03-01 01:44:00,30.7,23.1,29.92,North,0,0.0,-999.0,73,0.00,Sunny,,0.00,Open2300\PHP-WU,2013-03-01 06:44:00,
2013-03-01 01:50:00,30.6,23.2,29.92,North,0,0.0,-999.0,74,0.00,Sunny,,0.00,Open2300\PHP-WU,2013-03-01 06:50:00,
2013-03-01 01:56:00,30.2,22.9,29.92,North,0,0.0,-999.0,74,0.00,Sunny,,0.00,Open2300\PHP-WU,2013-03-01 06:56:00,
2013-03-01 02:02:00,29.8,22.5,29.92,North,0,0.0,-999.0,74,0.00,Sunny,,0.00,Open2300\PHP-WU,2013-03-01 07:02:00,
2013-03-01 02:08:00,29.3,22.6,29.92,North,0,0.0,-999.0,76,0.00,Sunny,,0.00,Open2300\PHP-WU,2013-03-01 07:08:00,
2013-03-01 02:14:00,29.3,22.6,29.91,North,0,0.0,-999.0,76,0.00,Sunny,,0.00,Open2300\PHP-WU,2013-03-01 07:14:00,
2013-03-01 02:20:00,29.5,23.1,29.92,North,0,0.0,-999.0,77,0.00,Sunny,,0.00,Open2300\PHP-WU,2013-03-01 07:20:00,
2013-03-01 02:26:00,29.5,23.1,29.91,North,0,0.0,-999.0,77,0.00,Sunny,,0.00,Open2300\PHP-WU,2013-03-01 07:26:00,
2013-03-01 02:32:00,29.1,22.8,29.91,North,0,0.0,-999.0,77,0.00,Sunny,,0.00,Open2300\PHP-WU,2013-03-01 07:32:00,
2013-03-01 02:38:00,28.8,22.4,29.91,North,0,0.0,-999.0,77,0.00,Sunny,,0.00,Open2300\PHP-WU,2013-03-01 07:38:00,
2013-03-01 02:44:00,28.2,22.2,29.91,North,0,0.0,-999.0,78,0.00,Sunny,,0.00,Open2300\PHP-WU,2013-03-01 07:44:00,
2013-03-01 02:50:00,28.4,22.2,29.90,North,0,0.0,-999.0,79,0.00,Sunny,,0.00,Open2300\PHP-WU,2013-03-01 07:50:00,
2013-03-01 02:56:00,28.8,23.0,29.90,North,0,0.0,-999.0,79,0.00,Sunny,,0.00,Open2300\PHP-WU,2013-03-01 07:56:00,
2013-03-01 03:02:00,28.8,23.0,29.90,North,0,0.0,-999.0,79,0.00,Sunny,,0.00,Open2300\PHP-WU,2013-03-01 08:02:00,
2013-03-01 03:08:00,28.2,22.5,29.90,North,0,0.0,-999.0,79,0.00,Sunny,,0.00,Open2300\PHP-WU,2013-03-01 08:08:00,
2013-03-01 03:14:00,28.6,23.2,29.90,North,0,0.0,-999.0,80,0.00,Sunny,,0.00,Open2300\PHP-WU,2013-03-01 08:14:00,
2013-03-01 03:20:00,28.2,22.8,29.90,North,0,0.0,-999.0,80,0.00,Sunny,,0.00,Open2300\PHP-WU,2013-03-01 08:20:00,
2013-03-01 03:26:00,28.0,22.6,29.90,North,0,0.0,-999.0,80,0.00,Sunny,,0.00,Open2300\PHP-WU,2013-03-01 08:26:00,
2013-03-01 03:32:00,27.5,22.1,29.90,North,0,0.0,-999.0,80,0.00,Sunny,,0.00,Open2300\PHP-WU,2013-03-01 08:32:00,
2013-03-01 03:38:00,27.3,21.9,29.90,North,0,0.0,-999.0,80,0.00,Sunny,,0.00,Open2300\PHP-WU,2013-03-01 08:38:00,
2013-03-01 03:44:00,27.1,22.0,29.91,North,0,0.0,-999.0,81,0.00,Sunny,,0.00,Open2300\PHP-WU,2013-03-01 08:44:00,
2013-03-01 03:50:00,27.1,22.0,29.91,North,0,0.0,-999.0,81,0.00,Sunny,,0.00,Open2300\PHP-WU,2013-03-01 08:50:00,
2013-03-01 03:56:00,27.1,22.0,29.91,North,0,0.0,-999.0,81,0.00,Sunny,,0.00,Open2300\PHP-WU,2013-03-01 08:56:00,
2013-03-01 04:02:00,27.1,22.0,29.91,North,0,0.0,-999.0,81,0.00,Sunny,,0.00,Open2300\PHP-WU,2013-03-01 09:02:00,
2013-03-01 04:08:00,26.8,22.0,29.91,North,0,0.0,-999.0,82,0.00,Sunny,,0.00,Open2300\PHP-WU,2013-03-01 09:08:00,
2013-03-01 04:14:00,26.8,22.0,29.91,North,0,0.0,-999.0,82,0.00,Sunny,,0.00,Open2300\PHP-WU,2013-03-01 09:14:00,
2013-03-01 04:20:00,27.0,22.1,29.91,North,0,0.0,-999.0,82,0.00,Sunny,,0.00,Open2300\PHP-WU,2013-03-01 09:20:00,
2013-03-01 04:26:00,27.1,22.3,29.91,North,0,0.0,-999.0,82,0.00,Sunny,,0.00,Open2300\PHP-WU,2013-03-01 09:26:00,
2013-03-01 04:32:00,27.0,22.1,29.91,North,0,0.0,-999.0,82,0.00,Sunny,,0.00,Open2300\PHP-WU,2013-03-01 09:32:00,
2013-03-01 04:38:00,26.8,22.0,29.92,North,0,0.0,-999.0,82,0.00,Sunny,,0.00,Open2300\PHP-WU,2013-03-01 09:38:00,
2013-03-01 04:44:00,26.8,22.2,29.91,North,0,0.0,-999.0,83,0.00,Sunny,,0.00,Open2300\PHP-WU,2013-03-01 09:44:00,
2013-03-01 04:50:00,26.4,21.9,29.92,North,0,0.0,-999.0,83,0.00,Sunny,,0.00,Open2300\PHP-WU,2013-03-01 09:50:00,
2013-03-01 04:56:00,26.4,21.9,29.92,North,0,0.0,-999.0,83,0.00,Sunny,,0.00,Open2300\PHP-WU,2013-03-01 09:56:00,
2013-03-01 05:02:00,26.4,21.9,29.92,North,0,0.0,-999.0,83,0.00,Sunny,,0.00,Open2300\PHP-WU,2013-03-01 10:02:00,
2013-03-01 05:08:00,26.4,21.9,29.91,North,0,0.0,-999.0,83,0.00,Sunny,,0.00,Open2300\PHP-WU,2013-03-01 10:08:00,
2013-03-01 05:14:00,26.2,21.7,29.92,North,0,0.0,-999.0,83,0.00,Sunny,,0.00,Open2300\PHP-WU,2013-03-01 10:14:00,
2013-03-01 05:20:00,26.2,22.0,29.92,North,0,0.0,-999.0,84,0.00,Sunny,,0.00,Open2300\PHP-WU,2013-03-01 10:20:00,
2013-03-01 05:26:00,26.2,22.0,29.92,SSE,157,0.0,-999.0,84,0.00,Sunny,,0.00,Open2300\PHP-WU,2013-03-01 10:26:00,
2013-03-01 05:32:00,26.4,22.2,29.92,SSE,157,0.0,-999.0,84,0.00,Sunny,,0.00,Open2300\PHP-WU,2013-03-01 10:32:00,
2013-03-01 05:38:00,26.4,22.2,29.93,SSE,157,0.0,-999.0,84,0.00,Sunny,,0.00,Open2300\PHP-WU,2013-03-01 10:38:00,
2013-03-01 05:46:00,26.4,22.2,29.93,SSE,157,0.0,-999.0,84,0.00,Sunny,,0.00,Open2300\PHP-WU,2013-03-01 10:46:00,
2013-03-01 05:52:00,26.4,22.2,29.94,SSE,157,0.0,-999.0,84,0.00,Sunny,,0.00,Open2300\PHP-WU,2013-03-01 10:52:00,
2013-03-01 05:58:00,26.2,22.0,29.94,SSE,157,0.0,-999.0,84,0.00,Sunny,,0.00,Open2300\PHP-WU,2013-03-01 10:58:00,
2013-03-01 06:04:00,26.2,22.0,29.94,WSW,247,0.0,-999.0,84,0.00,Sunny,,0.00,Open2300\PHP-WU,2013-03-01 11:04:00,
2013-03-01 06:10:00,25.9,21.7,29.94,SSE,157,0.0,-999.0,84,0.00,Sunny,,0.00,Open2300\PHP-WU,2013-03-01 11:10:00,
2013-03-01 06:16:00,25.7,21.5,29.94,SSE,157,0.0,-999.0,84,0.00,Sunny,,0.00,Open2300\PHP-WU,2013-03-01 11:16:00,
2013-03-01 06:22:00,25.5,21.3,29.93,SSE,157,0.0,-999.0,84,0.00,Sunny,,0.00,Open2300\PHP-WU,2013-03-01 11:22:00,
2013-03-01 06:28:00,25.5,21.3,29.93,SSE,157,0.0,-999.0,84,0.00,Sunny,,0.00,Open2300\PHP-WU,2013-03-01 11:28:00,
2013-03-01 06:34:00,25.5,21.3,29.93,SSE,157,0.0,-999.0,84,0.00,Sunny,,0.00,Open2300\PHP-WU,2013-03-01 11:34:00,
2013-03-01 06:40:00,25.3,21.2,29.93,SSE,157,0.0,-999.0,84,0.00,Sunny,,0.00,Open2300\PHP-WU,2013-03-01 11:40:00,
2013-03-01 06:46:00,25.3,21.2,29.93,SSE,157,0.0,-999.0,84,0.00,Sunny,,0.00,Open2300\PHP-WU,2013-03-01 11:46:00,
2013-03-01 06:52:00,25.3,21.4,29.93,SSE,157,0.0,-999.0,85,0.00,Sunny,,0.00,Open2300\PHP-WU,2013-03-01 11:52:00,
2013-03-01 06:58:00,25.9,22.0,29.93,SSE,157,0.0,-999.0,85,0.00,Sunny,,0.00,Open2300\PHP-WU,2013-03-01 11:58:00,
2013-03-01 07:04:00,25.7,21.8,29.94,SSE,157,0.0,-999.0,85,0.00,Sunny,,0.00,Open2300\PHP-WU,2013-03-01 12:04:00,
2013-03-01 07:10:00,25.7,21.8,29.94,SSE,157,0.0,-999.0,85,0.00,Sunny,,0.00,Open2300\PHP-WU,2013-03-01 12:10:00,
2013-03-01 07:16:00,25.7,21.8,29.94,SSE,157,0.0,-999.0,85,0.00,Sunny,,0.00,Open2300\PHP-WU,2013-03-01 12:16:00,
2013-03-01 07:22:00,25.9,22.0,29.94,SSE,157,0.0,-999.0,85,0.00,Sunny,,0.00,Open2300\PHP-WU,2013-03-01 12:22:00,
2013-03-01 07:28:00,26.4,22.5,29.95,SSE,157,0.0,-999.0,85,0.00,Sunny,,0.00,Open2300\PHP-WU,2013-03-01 12:28:00,
2013-03-01 07:34:00,26.4,22.5,29.94,SSE,157,0.0,-999.0,85,0.00,Sunny,,0.00,Open2300\PHP-WU,2013-03-01 12:34:00,
2013-03-01 07:40:00,26.8,22.8,29.94,SSE,157,0.0,-999.0,85,0.00,Sunny,,0.00,Open2300\PHP-WU,2013-03-01 12:40:00,
2013-03-01 07:46:00,27.5,23.5,29.94,SSE,157,0.0,-999.0,85,0.00,Sunny,,0.00,Open2300\PHP-WU,2013-03-01 12:46:00,
2013-03-01 07:52:00,27.7,23.7,29.94,SSE,157,0.0,-999.0,85,0.00,Sunny,,0.00,Open2300\PHP-WU,2013-03-01 12:52:00,
2013-03-01 07:58:00,28.6,24.9,29.94,SSE,157,0.0,-999.0,86,0.00,Sunny,,0.00,Open2300\PHP-WU,2013-03-01 12:58:00,
2013-03-01 08:04:00,29.3,25.3,29.94,SSE,157,0.0,-999.0,85,0.00,Sunny,,0.00,Open2300\PHP-WU,2013-03-01 13:04:00,
2013-03-01 08:10:00,30.0,26.3,29.94,South,180,0.0,-999.0,86,0.00,Sunny,,0.00,Open2300\PHP-WU,2013-03-01 13:10:00,
2013-03-01 08:16:00,31.1,27.1,29.94,SSW,202,0.0,-999.0,85,0.00,Sunny,,0.00,Open2300\PHP-WU,2013-03-01 13:16:00,
2013-03-01 08:22:00,31.8,27.9,29.95,SSW,202,0.0,-999.0,85,0.00,Sunny,,0.00,Open2300\PHP-WU,2013-03-01 13:22:00,
2013-03-01 08:28:00,33.1,29.0,29.95,WSW,247,0.0,-999.0,85,0.00,Sunny,,0.00,Open2300\PHP-WU,2013-03-01 13:28:00,
2013-03-01 08:34:00,34.0,29.6,29.94,SW,225,0.0,-999.0,84,0.00,Sunny,,0.00,Open2300\PHP-WU,2013-03-01 13:34:00,
2013-03-01 08:40:00,35.2,30.5,29.94,West,270,0.0,-999.0,83,0.00,Sunny,,0.00,Open2300\PHP-WU,2013-03-01 13:40:00,
2013-03-01 08:46:00,36.5,31.2,29.94,West,270,0.0,-999.0,81,0.00,Sunny,,0.00,Open2300\PHP-WU,2013-03-01 13:46:00,
2013-03-01 08:52:00,37.0,31.5,29.94,WNW,292,0.0,-999.0,80,0.00,Sunny,,0.00,Open2300\PHP-WU,2013-03-01 13:52:00,
2013-03-01 08:58:00,38.8,32.2,29.94,WSW,247,0.0,-999.0,77,0.00,Sunny,,0.00,Open2300\PHP-WU,2013-03-01 13:58:00,
2013-03-01 09:04:00,41.2,32.8,29.94,WSW,247,0.0,-999.0,72,0.00,Sunny,,0.00,Open2300\PHP-WU,2013-03-01 14:04:00,
2013-03-01 09:10:00,43.0,32.8,29.94,North,0,0.0,-999.0,67,0.00,Sunny,,0.00,Open2300\PHP-WU,2013-03-01 14:10:00,
2013-03-01 09:16:00,44.6,32.8,29.94,North,0,0.0,-999.0,63,0.00,Sunny,,0.00,Open2300\PHP-WU,2013-03-01 14:16:00,
2013-03-01 09:22:00,45.3,32.7,29.94,NW,315,0.0,-999.0,61,0.00,Sunny,,0.00,Open2300\PHP-WU,2013-03-01 14:22:00,
2013-03-01 09:28:00,46.0,32.0,29.94,WSW,247,0.0,-999.0,58,0.00,Sunny,,0.00,Open2300\PHP-WU,2013-03-01 14:28:00,
2013-03-01 09:34:00,46.8,32.3,29.94,NW,315,0.0,-999.0,57,0.00,Sunny,,0.00,Open2300\PHP-WU,2013-03-01 14:34:00,
2013-03-01 09:40:00,47.1,31.7,29.94,NE,45,0.0,-999.0,55,0.00,Sunny,,0.00,Open2300\PHP-WU,2013-03-01 14:40:00,
2013-03-01 09:46:00,48.0,30.7,29.94,North,0,3.4,-999.0,51,0.00,Sunny,,0.00,Open2300\PHP-WU,2013-03-01 14:46:00,
2013-03-01 09:52:00,48.7,30.4,29.94,NNE,22,0.0,-999.0,49,0.00,Sunny,,0.00,Open2300\PHP-WU,2013-03-01 14:52:00,
2013-03-01 09:58:00,48.9,30.5,29.94,West,270,2.9,-999.0,49,0.00,Sunny,,0.00,Open2300\PHP-WU,2013-03-01 14:58:00,
2013-03-01 10:04:00,48.6,29.6,29.94,WSW,247,0.0,-999.0,48,0.00,Sunny,,0.00,Open2300\PHP-WU,2013-03-01 15:04:00,
2013-03-01 10:10:00,49.3,30.9,29.94,SSW,202,0.0,-999.0,49,0.00,Sunny,,0.00,Open2300\PHP-WU,2013-03-01 15:10:00,
2013-03-01 10:16:00,48.9,28.9,29.93,North,0,0.0,-999.0,46,0.00,Sunny,,0.00,Open2300\PHP-WU,2013-03-01 15:16:00,
2013-03-01 10:22:00,49.6,29.6,29.94,NNW,337,2.2,-999.0,46,0.00,Sunny,,0.00,Open2300\PHP-WU,2013-03-01 15:22:00,
2013-03-01 10:28:00,49.8,28.7,29.94,North,0,0.0,-999.0,44,0.00,Sunny,,0.00,Open2300\PHP-WU,2013-03-01 15:28:00,
2013-03-01 10:34:00,48.9,29.4,29.94,West,270,0.0,-999.0,47,0.00,Sunny,,0.00,Open2300\PHP-WU,2013-03-01 15:34:00,
2013-03-01 10:40:00,50.2,30.1,29.94,West,270,0.0,-999.0,46,0.00,Sunny,,0.00,Open2300\PHP-WU,2013-03-01 15:40:00,
2013-03-01 10:46:00,50.7,30.0,29.93,NNE,22,0.0,-999.0,45,0.00,Sunny,,0.00,Open2300\PHP-WU,2013-03-01 15:46:00,
2013-03-01 10:52:00,51.6,30.3,29.93,NNE,22,0.0,-999.0,44,0.00,Sunny,,0.00,Open2300\PHP-WU,2013-03-01 15:52:00,
2013-03-01 10:58:00,50.9,29.6,29.93,ENE,67,0.0,-999.0,44,0.00,Sunny,,0.00,Open2300\PHP-WU,2013-03-01 15:58:00,
2013-03-01 11:04:00,50.7,29.5,29.94,South,180,0.0,-999.0,44,0.00,Sunny,,0.00,Open2300\PHP-WU,2013-03-01 16:04:00,
2013-03-01 11:10:00,49.3,28.1,29.94,West,270,0.0,-999.0,44,0.00,Sunny,,0.00,Open2300\PHP-WU,2013-03-01 16:10:00,
2013-03-01 11:16:00,48.9,28.9,29.94,WSW,247,0.0,-999.0,46,0.00,Sunny,,0.00,Open2300\PHP-WU,2013-03-01 16:16:00,
2013-03-01 11:22:00,48.9,28.4,29.94,North,0,0.0,-999.0,45,0.00,Sunny,,0.00,Open2300\PHP-WU,2013-03-01 16:22:00,
2013-03-01 11:28:00,48.6,28.0,29.94,NE,45,0.0,-999.0,45,0.00,Sunny,,0.00,Open2300\PHP-WU,2013-03-01 16:28:00,
2013-03-01 11:34:00,48.6,28.6,29.94,NNE,22,0.0,-999.0,46,0.00,Sunny,,0.00,Open2300\PHP-WU,2013-03-01 16:34:00,
2013-03-01 11:40:00,48.7,28.7,29.93,WNW,292,0.0,-999.0,46,0.00,Sunny,,0.00,Open2300\PHP-WU,2013-03-01 16:40:00,
2013-03-01 11:46:00,48.7,28.7,29.93,North,0,6.5,-999.0,46,0.00,Sunny,,0.00,Open2300\PHP-WU,2013-03-01 16:46:00,
2013-03-01 11:52:00,49.1,29.1,29.93,West,270,0.0,-999.0,46,0.00,Sunny,,0.00,Open2300\PHP-WU,2013-03-01 16:52:00,
2013-03-01 11:58:00,48.9,28.9,29.93,North,0,0.0,-999.0,46,0.00,Sunny,,0.00,Open2300\PHP-WU,2013-03-01 16:58:00,
2013-03-01 12:04:00,49.3,28.7,29.93,West,270,2.0,-999.0,45,0.00,Sunny,,0.00,Open2300\PHP-WU,2013-03-01 17:04:00,
2013-03-01 12:09:00,48.9,28.4,29.93,NNW,337,0.0,-999.0,45,0.00,Sunny,,0.00,Open2300\PHP-WU,2013-03-01 17:09:00,
2013-03-01 12:16:00,49.1,29.1,29.93,WNW,292,0.0,-999.0,46,0.00,Sunny,,0.00,Open2300\PHP-WU,2013-03-01 17:16:00,
2013-03-01 12:21:00,48.7,28.7,29.92,WSW,247,0.0,-999.0,46,0.00,Sunny,,0.00,Open2300\PHP-WU,2013-03-01 17:21:00,
2013-03-01 12:27:00,48.4,28.4,29.92,North,0,0.0,-999.0,46,0.00,Sunny,,0.00,Open2300\PHP-WU,2013-03-01 17:27:00,
2013-03-01 12:33:00,48.2,27.7,29.92,WSW,247,0.0,-999.0,45,0.00,Sunny,,0.00,Open2300\PHP-WU,2013-03-01 17:33:00,
2013-03-01 12:39:00,47.8,27.4,29.92,NNE,22,0.0,-999.0,45,0.00,Sunny,,0.00,Open2300\PHP-WU,2013-03-01 17:39:00,
2013-03-01 12:45:00,47.8,27.9,29.92,WNW,292,0.0,-999.0,46,0.00,Sunny,,0.00,Open2300\PHP-WU,2013-03-01 17:45:00,
2013-03-01 12:52:00,48.0,28.1,29.91,WSW,247,0.0,-999.0,46,0.00,Sunny,,0.00,Open2300\PHP-WU,2013-03-01 17:52:00,
2013-03-01 12:57:00,48.4,28.4,29.91,West,270,0.0,-999.0,46,0.00,Sunny,,0.00,Open2300\PHP-WU,2013-03-01 17:57:00,
2013-03-01 13:03:00,48.7,28.7,29.91,NNE,22,0.0,-999.0,46,0.00,Sunny,,0.00,Open2300\PHP-WU,2013-03-01 18:03:00,
2013-03-01 13:09:00,49.3,28.7,29.91,North,0,0.0,-999.0,45,0.00,Sunny,,0.00,Open2300\PHP-WU,2013-03-01 18:09:00,
2013-03-01 13:15:00,49.3,28.1,29.91,West,270,0.0,-999.0,44,0.00,Sunny,,0.00,Open2300\PHP-WU,2013-03-01 18:15:00,
2013-03-01 13:22:00,49.1,28.5,29.91,NW,315,0.0,-999.0,45,0.00,Sunny,,0.00,Open2300\PHP-WU,2013-03-01 18:22:00,
2013-03-01 13:27:00,48.6,28.0,29.91,NNE,22,0.0,-999.0,45,0.00,Sunny,,0.00,Open2300\PHP-WU,2013-03-01 18:27:00,
2013-03-01 13:33:00,48.0,27.5,29.91,NE,45,0.0,-999.0,45,0.00,Sunny,,0.00,Open2300\PHP-WU,2013-03-01 18:33:00,
2013-03-01 13:39:00,47.8,27.4,29.91,ENE,67,0.0,-999.0,45,0.00,Sunny,,0.00,Open2300\PHP-WU,2013-03-01 18:39:00,
2013-03-01 13:45:00,47.3,27.4,29.91,ENE,67,0.0,-999.0,46,0.00,Sunny,,0.00,Open2300\PHP-WU,2013-03-01 18:45:00,
2013-03-01 13:52:00,47.3,27.4,29.91,ENE,67,0.0,-999.0,46,0.00,Sunny,,0.00,Open2300\PHP-WU,2013-03-01 18:52:00,
2013-03-01 13:57:00,47.3,28.0,29.91,NW,315,0.0,-999.0,47,0.00,Sunny,,0.00,Open2300\PHP-WU,2013-03-01 18:57:00,
2013-03-01 14:03:00,47.1,27.2,29.91,NE,45,0.0,-999.0,46,0.00,Sunny,,0.00,Open2300\PHP-WU,2013-03-01 19:03:00,
2013-03-01 14:09:00,46.9,27.6,29.90,WSW,247,0.0,-999.0,47,0.00,Sunny,,0.00,Open2300\PHP-WU,2013-03-01 19:09:00,
2013-03-01 14:15:00,46.9,27.6,29.90,NNW,337,0.0,-999.0,47,0.00,Sunny,,0.00,Open2300\PHP-WU,2013-03-01 19:15:00,
2013-03-01 14:21:00,46.6,26.8,29.90,NNW,337,0.0,-999.0,46,0.00,Sunny,,0.00,Open2300\PHP-WU,2013-03-01 19:21:00,
2013-03-01 14:27:00,46.2,27.0,29.90,North,0,0.0,-999.0,47,0.00,Sunny,,0.00,Open2300\PHP-WU,2013-03-01 19:27:00,
2013-03-01 14:33:00,46.0,26.8,29.90,NNE,22,4.3,-999.0,47,0.00,Sunny,,0.00,Open2300\PHP-WU,2013-03-01 19:33:00,
2013-03-01 14:39:00,46.0,26.8,29.90,North,0,0.0,-999.0,47,0.00,Sunny,,0.00,Open2300\PHP-WU,2013-03-01 19:39:00,
2013-03-01 14:45:00,46.0,27.4,29.90,NNE,22,0.0,-999.0,48,0.00,Sunny,,0.00,Open2300\PHP-WU,2013-03-01 19:45:00,
2013-03-01 14:51:00,46.0,27.4,29.90,North,0,0.0,-999.0,48,0.00,Sunny,,0.00,Open2300\PHP-WU,2013-03-01 19:51:00,
2013-03-01 14:57:00,45.9,27.2,29.90,NNE,22,0.0,-999.0,48,0.00,Sunny,,0.00,Open2300\PHP-WU,2013-03-01 19:57:00,
2013-03-01 15:03:00,45.7,27.6,29.91,North,0,0.0,-999.0,49,0.00,Sunny,,0.00,Open2300\PHP-WU,2013-03-01 20:03:00,
2013-03-01 15:09:00,45.5,27.4,29.90,SSW,202,0.0,-999.0,49,0.00,Sunny,,0.00,Open2300\PHP-WU,2013-03-01 20:09:00,
2013-03-01 15:15:00,45.1,27.6,29.90,NW,315,0.0,-999.0,50,0.00,Sunny,,0.00,Open2300\PHP-WU,2013-03-01 20:15:00,
2013-03-01 15:21:00,45.1,27.6,29.90,WSW,247,0.0,-999.0,50,0.00,Sunny,,0.00,Open2300\PHP-WU,2013-03-01 20:21:00,
2013-03-01 15:27:00,45.1,27.6,29.90,North,0,0.0,-999.0,50,0.00,Sunny,,0.00,Open2300\PHP-WU,2013-03-01 20:27:00,
2013-03-01 15:33:00,45.3,28.2,29.91,NNE,22,0.0,-999.0,51,0.00,Sunny,,0.00,Open2300\PHP-WU,2013-03-01 20:33:00,
2013-03-01 15:39:00,45.1,27.6,29.90,North,0,1.8,-999.0,50,0.00,Sunny,,0.00,Open2300\PHP-WU,2013-03-01 20:39:00,
2013-03-01 15:45:00,45.3,28.2,29.90,WSW,247,0.0,-999.0,51,0.00,Sunny,,0.00,Open2300\PHP-WU,2013-03-01 20:45:00,
2013-03-01 15:51:00,45.5,28.0,29.90,WSW,247,0.0,-999.0,50,0.00,Sunny,,0.00,Open2300\PHP-WU,2013-03-01 20:51:00,
2013-03-01 15:57:00,45.7,28.1,29.91,WSW,247,0.0,-999.0,50,0.00,Sunny,,0.00,Open2300\PHP-WU,2013-03-01 20:57:00,
2013-03-01 16:03:00,45.5,28.0,29.90,NE,45,0.0,-999.0,50,0.00,Sunny,,0.00,Open2300\PHP-WU,2013-03-01 21:03:00,
2013-03-01 16:09:00,45.1,27.6,29.91,West,270,0.0,-999.0,50,0.00,Sunny,,0.00,Open2300\PHP-WU,2013-03-01 21:09:00,
2013-03-01 16:15:00,45.1,28.1,29.91,West,270,0.0,-999.0,51,0.00,Sunny,,0.00,Open2300\PHP-WU,2013-03-01 21:15:00,
2013-03-01 16:21:00,45.0,27.9,29.90,WSW,247,0.0,-999.0,51,0.00,Sunny,,0.00,Open2300\PHP-WU,2013-03-01 21:21:00,
2013-03-01 16:27:00,44.8,27.8,29.91,West,270,0.0,-999.0,51,0.00,Sunny,,0.00,Open2300\PHP-WU,2013-03-01 21:27:00,
2013-03-01 16:33:00,44.8,27.8,29.92,West,270,0.0,-999.0,51,0.00,Sunny,,0.00,Open2300\PHP-WU,2013-03-01 21:33:00,
2013-03-01 16:39:00,44.4,27.4,29.92,NW,315,0.0,-999.0,51,0.00,Sunny,,0.00,Open2300\PHP-WU,2013-03-01 21:39:00,
2013-03-01 16:45:00,44.4,27.9,29.92,West,270,0.0,-999.0,52,0.00,Sunny,,0.00,Open2300\PHP-WU,2013-03-01 21:45:00,
2013-03-01 16:51:00,44.4,27.9,29.92,West,270,0.0,-999.0,52,0.00,Sunny,,0.00,Open2300\PHP-WU,2013-03-01 21:51:00,
2013-03-01 16:57:00,44.4,27.9,29.92,SW,225,0.0,-999.0,52,0.00,Sunny,,0.00,Open2300\PHP-WU,2013-03-01 21:57:00,
2013-03-01 17:03:00,44.4,27.9,29.92,North,0,0.0,-999.0,52,0.00,Sunny,,0.00,Open2300\PHP-WU,2013-03-01 22:03:00,
2013-03-01 17:09:00,44.2,28.1,29.92,WSW,247,0.0,-999.0,53,0.00,Sunny,,0.00,Open2300\PHP-WU,2013-03-01 22:09:00,
2013-03-01 17:15:00,44.1,28.0,29.93,NNE,22,0.0,-999.0,53,0.00,Sunny,,0.00,Open2300\PHP-WU,2013-03-01 22:15:00,
2013-03-01 17:21:00,44.1,28.0,29.93,NE,45,0.0,-999.0,53,0.00,Sunny,,0.00,Open2300\PHP-WU,2013-03-01 22:21:00,
2013-03-01 17:27:00,43.9,27.8,29.94,NE,45,0.0,-999.0,53,0.00,Sunny,,0.00,Open2300\PHP-WU,2013-03-01 22:27:00,
2013-03-01 17:33:00,43.9,27.8,29.94,NE,45,0.0,-999.0,53,0.00,Sunny,,0.00,Open2300\PHP-WU,2013-03-01 22:33:00,
2013-03-01 17:39:00,43.9,27.8,29.94,NE,45,0.0,-999.0,53,0.00,Sunny,,0.00,Open2300\PHP-WU,2013-03-01 22:39:00,
2013-03-01 17:52:00,43.3,27.8,29.94,West,270,0.0,-999.0,54,0.00,Sunny,,0.00,Open2300\PHP-WU,2013-03-01 22:52:00,
2013-03-01 17:57:00,43.2,27.6,29.93,West,270,0.0,-999.0,54,0.00,Sunny,,0.00,Open2300\PHP-WU,2013-03-01 22:57:00,
2013-03-01 18:03:00,43.0,27.4,29.93,WSW,247,0.0,-999.0,54,0.00,Sunny,,0.00,Open2300\PHP-WU,2013-03-01 23:03:00,
2013-03-01 18:09:00,43.0,27.4,29.93,WSW,247,0.0,-999.0,54,0.00,Sunny,,0.00,Open2300\PHP-WU,2013-03-01 23:09:00,
2013-03-01 18:15:00,43.0,27.8,29.93,WSW,247,0.0,-999.0,55,0.00,Sunny,,0.00,Open2300\PHP-WU,2013-03-01 23:15:00,
2013-03-01 18:21:00,42.6,27.5,29.94,WSW,247,0.0,-999.0,55,0.00,Sunny,,0.00,Open2300\PHP-WU,2013-03-01 23:21:00,
2013-03-01 18:27:00,42.6,27.5,29.94,West,270,0.0,-999.0,55,0.00,Sunny,,0.00,Open2300\PHP-WU,2013-03-01 23:27:00,
2013-03-01 18:33:00,42.4,27.3,29.94,WSW,247,0.0,-999.0,55,0.00,Sunny,,0.00,Open2300\PHP-WU,2013-03-01 23:33:00,
2013-03-01 18:39:00,42.4,27.8,29.94,WSW,247,0.0,-999.0,56,0.00,Sunny,,0.00,Open2300\PHP-WU,2013-03-01 23:39:00,
2013-03-01 18:45:00,42.4,27.8,29.95,WSW,247,0.0,-999.0,56,0.00,Sunny,,0.00,Open2300\PHP-WU,2013-03-01 23:45:00,
2013-03-01 18:51:00,42.3,27.6,29.94,WSW,247,0.0,-999.0,56,0.00,Sunny,,0.00,Open2300\PHP-WU,2013-03-01 23:51:00,
2013-03-01 18:57:00,42.1,27.9,29.95,WSW,247,0.0,-999.0,57,0.00,Sunny,,0.00,Open2300\PHP-WU,2013-03-01 23:57:00,
2013-03-01 19:03:00,41.7,27.5,29.95,WSW,247,0.0,-999.0,57,0.00,Sunny,,0.00,Open2300\PHP-WU,2013-03-02 00:03:00,
2013-03-01 19:09:00,41.5,27.4,29.95,WSW,247,0.0,-999.0,57,0.00,Sunny,,0.00,Open2300\PHP-WU,2013-03-02 00:09:00,
2013-03-01 19:15:00,41.5,27.8,29.96,WSW,247,0.0,-999.0,58,0.00,Sunny,,0.00,Open2300\PHP-WU,2013-03-02 00:15:00,
2013-03-01 19:21:00,41.5,28.3,29.96,WSW,247,0.0,-999.0,58,0.00,Sunny,,0.00,Open2300\PHP-WU,2013-03-02 00:21:00,
2013-03-01 19:27:00,41.5,27.8,29.96,WSW,247,0.0,-999.0,58,0.00,Sunny,,0.00,Open2300\PHP-WU,2013-03-02 00:27:00,
2013-03-01 19:34:00,41.4,27.6,29.96,WSW,247,0.0,-999.0,58,0.00,Sunny,,0.00,Open2300\PHP-WU,2013-03-02 00:34:00,
2013-03-01 19:40:00,41.4,28.1,29.96,WSW,247,0.0,-999.0,59,0.00,Sunny,,0.00,Open2300\PHP-WU,2013-03-02 00:40:00,
2013-03-01 19:46:00,41.4,28.1,29.96,WSW,247,0.0,-999.0,59,0.00,Sunny,,0.00,Open2300\PHP-WU,2013-03-02 00:46:00,
2013-03-01 19:52:00,41.5,28.3,29.96,WSW,247,0.0,-999.0,59,0.00,Sunny,,0.00,Open2300\PHP-WU,2013-03-02 00:52:00,
2013-03-01 19:58:00,41.5,28.3,29.96,NNE,22,0.0,-999.0,59,0.00,Sunny,,0.00,Open2300\PHP-WU,2013-03-02 00:58:00,
2013-03-01 20:04:00,41.7,28.4,29.96,NNE,22,0.0,-999.0,59,0.00,Sunny,,0.00,Open2300\PHP-WU,2013-03-02 01:04:00,
2013-03-01 20:10:00,41.5,28.3,29.96,NNE,22,0.0,-999.0,59,0.00,Sunny,,0.00,Open2300\PHP-WU,2013-03-02 01:10:00,
2013-03-01 20:16:00,41.5,28.3,29.96,NNE,22,0.0,-999.0,59,0.00,Sunny,,0.00,Open2300\PHP-WU,2013-03-02 01:16:00,
2013-03-01 20:22:00,41.5,28.3,29.96,NNE,22,0.0,-999.0,59,0.00,Sunny,,0.00,Open2300\PHP-WU,2013-03-02 01:22:00,
2013-03-01 20:28:00,41.4,28.1,29.96,NNE,22,0.0,-999.0,59,0.00,Sunny,,0.00,Open2300\PHP-WU,2013-03-02 01:28:00,
2013-03-01 20:34:00,41.2,27.9,29.96,NNE,22,0.0,-999.0,59,0.00,Sunny,,0.00,Open2300\PHP-WU,2013-03-02 01:34:00,
2013-03-01 20:40:00,41.2,28.4,29.96,North,0,0.0,-999.0,60,0.00,Sunny,,0.00,Open2300\PHP-WU,2013-03-02 01:40:00,
2013-03-01 20:46:00,41.2,28.4,29.97,WSW,247,0.0,-999.0,60,0.00,Sunny,,0.00,Open2300\PHP-WU,2013-03-02 01:46:00,
2013-03-01 20:52:00,41.4,28.1,29.97,WSW,247,0.0,-999.0,59,0.00,Sunny,,0.00,Open2300\PHP-WU,2013-03-02 01:52:00,
2013-03-01 20:58:00,41.5,27.8,29.97,North,0,0.0,-999.0,59,0.00,Sunny,,0.00,Open2300\PHP-WU,2013-03-02 01:58:00,
2013-03-01 21:04:00,41.5,27.8,29.97,NNE,22,0.0,-999.0,58,0.00,Sunny,,0.00,Open2300\PHP-WU,2013-03-02 02:04:00,
2013-03-01 21:10:00,41.4,27.6,29.97,WNW,292,0.0,-999.0,58,0.00,Sunny,,0.00,Open2300\PHP-WU,2013-03-02 02:10:00,
2013-03-01 21:16:00,41.2,27.5,29.97,NNW,337,0.0,-999.0,58,0.00,Sunny,,0.00,Open2300\PHP-WU,2013-03-02 02:16:00,
2013-03-01 21:22:00,41.2,27.5,29.98,WNW,292,0.0,-999.0,58,0.00,Sunny,,0.00,Open2300\PHP-WU,2013-03-02 02:22:00,
2013-03-01 21:28:00,41.2,27.0,29.98,West,270,0.0,-999.0,57,0.00,Sunny,,0.00,Open2300\PHP-WU,2013-03-02 02:28:00,
2013-03-01 21:34:00,41.2,27.0,29.97,NW,315,0.0,-999.0,57,0.00,Sunny,,0.00,Open2300\PHP-WU,2013-03-02 02:34:00,
2013-03-01 21:40:00,41.2,27.0,29.97,NNW,337,0.0,-999.0,57,0.00,Sunny,,0.00,Open2300\PHP-WU,2013-03-02 02:40:00,
2013-03-01 21:46:00,41.2,27.0,29.98,North,0,0.0,-999.0,57,0.00,Sunny,,0.00,Open2300\PHP-WU,2013-03-02 02:46:00,
2013-03-01 21:52:00,41.2,26.6,29.98,North,0,0.0,-999.0,56,0.00,Sunny,,0.00,Open2300\PHP-WU,2013-03-02 02:52:00,
2013-03-01 21:58:00,41.2,26.6,29.97,NNW,337,0.0,-999.0,56,0.00,Sunny,,0.00,Open2300\PHP-WU,2013-03-02 02:58:00,
2013-03-01 22:04:00,41.0,26.4,29.97,NNE,22,0.0,-999.0,56,0.00,Sunny,,0.00,Open2300\PHP-WU,2013-03-02 03:04:00,
2013-03-01 22:10:00,40.8,26.2,29.98,NNE,22,0.0,-999.0,56,0.00,Sunny,,0.00,Open2300\PHP-WU,2013-03-02 03:10:00,
2013-03-01 22:16:00,40.5,26.3,29.98,NNW,337,0.0,-999.0,57,0.00,Sunny,,0.00,Open2300\PHP-WU,2013-03-02 03:16:00,
2013-03-01 22:22:00,40.3,25.7,29.99,NNE,22,0.0,-999.0,56,0.00,Sunny,,0.00,Open2300\PHP-WU,2013-03-02 03:22:00,
2013-03-01 22:28:00,40.3,25.7,29.98,North,0,0.0,-999.0,56,0.00,Sunny,,0.00,Open2300\PHP-WU,2013-03-02 03:28:00,
2013-03-01 22:34:00,40.3,25.7,29.98,North,0,0.0,-999.0,56,0.00,Sunny,,0.00,Open2300\PHP-WU,2013-03-02 03:34:00,
2013-03-01 22:40:00,40.3,25.7,29.97,NNE,22,0.0,-999.0,56,0.00,Sunny,,0.00,Open2300\PHP-WU,2013-03-02 03:40:00,
2013-03-01 22:46:00,40.1,25.6,29.97,NW,315,0.0,-999.0,56,0.00,Sunny,,0.00,Open2300\PHP-WU,2013-03-02 03:46:00,
2013-03-01 22:52:00,39.7,25.2,29.97,NNE,22,0.0,-999.0,56,0.00,Sunny,,0.00,Open2300\PHP-WU,2013-03-02 03:52:00,
2013-03-01 22:58:00,39.4,24.9,29.97,NNE,22,0.0,-999.0,56,0.00,Sunny,,0.00,Open2300\PHP-WU,2013-03-02 03:58:00,
2013-03-01 23:04:00,38.8,24.8,29.97,NNE,22,0.0,-999.0,57,0.00,Sunny,,0.00,Open2300\PHP-WU,2013-03-02 04:04:00,
2013-03-01 23:10:00,37.9,24.4,29.97,NNE,22,0.0,-999.0,58,0.00,Sunny,,0.00,Open2300\PHP-WU,2013-03-02 04:10:00,
2013-03-01 23:16:00,37.0,24.0,29.97,NNE,22,0.0,-999.0,59,0.00,Sunny,,0.00,Open2300\PHP-WU,2013-03-02 04:16:00,
2013-03-01 23:22:00,36.1,23.7,29.97,NNE,22,0.0,-999.0,60,0.00,Sunny,,0.00,Open2300\PHP-WU,2013-03-02 04:22:00,
2013-03-01 23:28:00,35.1,23.0,29.97,NNE,22,0.0,-999.0,61,0.00,Sunny,,0.00,Open2300\PHP-WU,2013-03-02 04:28:00,
2013-03-01 23:34:00,34.3,23.0,29.98,NNE,22,0.0,-999.0,63,0.00,Sunny,,0.00,Open2300\PHP-WU,2013-03-02 04:34:00,
2013-03-01 23:40:00,33.4,22.5,29.97,NNE,22,0.0,-999.0,64,0.00,Sunny,,0.00,Open2300\PHP-WU,2013-03-02 04:40:00,
2013-03-01 23:46:00,33.1,22.9,29.97,NNE,22,0.0,-999.0,66,0.00,Sunny,,0.00,Open2300\PHP-WU,2013-03-02 04:46:00,
2013-03-01 23:51:00,32.9,23.1,29.97,NNE,22,0.0,-999.0,67,0.00,Sunny,,0.00,Open2300\PHP-WU,2013-03-02 04:51:00,
2013-03-01 23:58:00,32.5,23.1,29.97,NNE,22,0.0,-999.0,68,0.00,Sunny,,0.00,Open2300\PHP-WU,2013-03-02 04:58:00,